createdAt,value
2023-04-14T00:00:06.688Z,99422.22
2023-04-14T00:02:37.975Z,99417.13
2023-04-14T00:05:06.788Z,99411.41
2023-04-14T00:07:34.388Z,99409.03
2023-04-14T00:10:02.548Z,99413.00
2023-04-14T00:12:30.330Z,99415.78
2023-04-14T00:14:57.923Z,99420.19
2023-04-14T00:17:27.016Z,99421.78
2023-04-14T00:19:54.689Z,99426.53
2023-04-14T00:22:22.644Z,99422.84
2023-04-14T00:24:51.102Z,99427.72
2023-04-14T00:27:18.922Z,99429.19
2023-04-14T00:29:46.509Z,99422.03
2023-04-14T00:32:14.264Z,99427.88
2023-04-14T00:34:44.031Z,99430.84
2023-04-14T00:37:11.814Z,99429.00
2023-04-14T00:39:39.422Z,99427.50
2023-04-14T00:42:07.294Z,99427.25
2023-04-14T00:44:35.037Z,99414.59
2023-04-14T00:47:03.408Z,99413.13
2023-04-14T00:49:31.315Z,99407.25
2023-04-14T00:52:00.655Z,99406.44
2023-04-14T00:54:29.089Z,99399.44
2023-04-14T00:59:42.024Z,99408.00
2023-04-14T01:02:09.655Z,99406.16
2023-04-14T01:04:49.659Z,99402.41
2023-04-14T01:07:22.101Z,99402.88
2023-04-14T01:09:50.203Z,99405.97
2023-04-14T01:12:27.724Z,99399.75
2023-04-14T01:15:04.476Z,99406.50
2023-04-14T01:17:38.661Z,99402.41
2023-04-14T01:20:14.707Z,99404.34
2023-04-14T01:22:49.705Z,99404.78
2023-04-14T01:25:55.275Z,99410.31
2023-04-14T01:28:41.059Z,99414.38
2023-04-14T01:31:26.584Z,99418.47
2023-04-14T01:34:07.913Z,99411.47
2023-04-14T01:36:42.443Z,99418.25
2023-04-14T01:39:14.762Z,99421.28
2023-04-14T01:41:46.096Z,99423.28
2023-04-14T01:44:15.698Z,99416.38
2023-04-14T01:46:46.610Z,99416.75
2023-04-14T01:49:14.729Z,99424.34
2023-04-14T01:51:46.010Z,99418.16
2023-04-14T01:54:16.946Z,99426.38
2023-04-14T01:56:47.294Z,99419.59
2023-04-14T01:59:16.205Z,99419.47
2023-04-14T02:01:47.058Z,99420.69
2023-04-14T02:04:16.562Z,99422.34
2023-04-14T02:06:44.820Z,99426.66
2023-04-14T02:09:13.602Z,99423.13
2023-04-14T02:11:42.612Z,99424.06
2023-04-14T02:14:11.881Z,99423.59
2023-04-14T02:16:40.951Z,99422.16
2023-04-14T02:19:10.599Z,99421.16
2023-04-14T02:21:39.839Z,99424.88
2023-04-14T02:24:08.056Z,99423.75
2023-04-14T02:26:41.902Z,99425.59
2023-04-14T02:29:13.508Z,99433.72
2023-04-14T02:31:46.552Z,99446.66
2023-04-14T02:34:22.116Z,99444.28
2023-04-14T02:36:53.773Z,99443.81
2023-04-14T02:39:27.273Z,99459.97
2023-04-14T02:41:59.030Z,99459.84
2023-04-14T02:44:29.579Z,99460.19
2023-04-14T02:47:03.835Z,99459.84
2023-04-14T02:49:35.282Z,99457.03
2023-04-14T02:52:06.220Z,99467.66
2023-04-14T02:54:36.776Z,99464.31
2023-04-14T02:57:05.237Z,99462.34
2023-04-14T02:59:34.039Z,99464.66
2023-04-14T03:02:05.237Z,99463.84
2023-04-14T03:04:36.694Z,99466.69
2023-04-14T03:07:06.510Z,99468.72
2023-04-14T03:09:34.893Z,99470.63
2023-04-14T03:12:04.645Z,99471.75
2023-04-14T03:14:33.244Z,99472.50
2023-04-14T03:17:02.028Z,99464.59
2023-04-14T03:19:30.493Z,99462.72
2023-04-14T03:22:00.248Z,99474.31
2023-04-14T03:24:31.140Z,99469.53
2023-04-14T03:27:03.816Z,99465.88
2023-04-14T03:29:37.778Z,99463.63
2023-04-14T03:32:07.894Z,99465.25
2023-04-14T03:34:39.520Z,99460.63
2023-04-14T03:37:09.293Z,99459.75
2023-04-14T03:39:40.168Z,99459.75
2023-04-14T03:42:09.248Z,99456.63
2023-04-14T03:44:39.880Z,99457.38
2023-04-14T03:47:08.250Z,99455.09
2023-04-14T03:49:39.300Z,99454.97
2023-04-14T03:52:13.286Z,99450.94
2023-04-14T03:54:43.806Z,99455.91
2023-04-14T03:57:14.596Z,99453.00
2023-04-14T03:59:43.248Z,99455.22
2023-04-14T04:02:12.718Z,99456.63
2023-04-14T04:04:42.483Z,99459.56
2023-04-14T04:07:14.014Z,99464.94
2023-04-14T04:09:42.810Z,99459.88
2023-04-14T04:12:12.962Z,99459.25
2023-04-14T04:14:41.405Z,99469.50
2023-04-14T04:17:11.560Z,99464.94
2023-04-14T04:19:40.918Z,99463.00
2023-04-14T04:22:10.168Z,99466.34
2023-04-14T04:24:50.426Z,99470.63
2023-04-14T04:27:27.757Z,99469.03
2023-04-14T04:29:56.407Z,99480.25
2023-04-14T04:32:25.637Z,99483.22
2023-04-14T04:34:54.633Z,99479.47
2023-04-14T04:37:22.815Z,99485.94
2023-04-14T04:39:51.764Z,99484.59
2023-04-14T04:42:19.836Z,99488.28
2023-04-14T04:44:47.496Z,99485.88
2023-04-14T04:47:23.544Z,99483.03
2023-04-14T04:49:53.833Z,99493.31
2023-04-14T04:52:21.609Z,99501.53
2023-04-14T04:54:52.337Z,99491.78
2023-04-14T04:57:21.979Z,99493.88
2023-04-14T04:59:49.865Z,99496.91
2023-04-14T05:02:18.005Z,99494.19
2023-04-14T05:04:46.023Z,99493.06
2023-04-14T05:07:13.755Z,99497.88
2023-04-14T05:09:41.546Z,99494.38
2023-04-14T05:12:09.597Z,99503.94
2023-04-14T05:14:39.066Z,99504.06
2023-04-14T05:17:07.014Z,99504.97
2023-04-14T05:19:34.654Z,99508.75
2023-04-14T05:22:03.129Z,99504.72
2023-04-14T05:24:30.884Z,99511.75
2023-04-14T05:29:33.205Z,99505.78
2023-04-14T05:32:02.354Z,99497.47
2023-04-14T05:34:30.150Z,99496.31
2023-04-14T05:36:57.872Z,99502.59
2023-04-14T05:39:25.645Z,99500.28
2023-04-14T05:41:53.819Z,99498.69
2023-04-14T05:44:22.637Z,99505.09
2023-04-14T05:46:50.643Z,99505.84
2023-04-14T05:49:19.674Z,99506.53
2023-04-14T05:51:47.271Z,99509.94
2023-04-14T05:54:18.595Z,99509.28
2023-04-14T05:56:47.298Z,99510.97
2023-04-14T05:59:16.258Z,99513.97
2023-04-14T06:01:45.493Z,99523.91
2023-04-14T06:04:13.491Z,99518.50
2023-04-14T06:06:42.530Z,99515.78
2023-04-14T06:09:10.732Z,99519.38
2023-04-14T06:11:39.693Z,99513.22
2023-04-14T06:14:07.783Z,99521.88
2023-04-14T06:16:35.575Z,99517.81
2023-04-14T06:19:03.752Z,99515.81
2023-04-14T06:21:32.478Z,99512.31
2023-04-14T06:24:01.678Z,99514.97
2023-04-14T06:26:29.238Z,99517.00
2023-04-14T06:28:57.335Z,99512.13
2023-04-14T06:31:25.093Z,99507.63
2023-04-14T06:33:52.948Z,99512.78
2023-04-14T06:36:20.565Z,99517.81
2023-04-14T06:38:49.200Z,99511.53
2023-04-14T06:41:18.354Z,99516.72
2023-04-14T06:43:46.359Z,99520.13
2023-04-14T06:46:14.762Z,99520.84
2023-04-14T06:48:42.582Z,99524.91
2023-04-14T06:51:12.361Z,99513.59
2023-04-14T06:53:40.013Z,99518.38
2023-04-14T06:56:09.663Z,99512.94
2023-04-14T06:58:40.232Z,99520.03
2023-04-14T07:01:09.649Z,99524.34
2023-04-14T07:03:37.404Z,99520.31
2023-04-14T07:06:12.139Z,99531.53
2023-04-14T07:08:40.610Z,99529.53
2023-04-14T07:11:10.244Z,99526.28
2023-04-14T07:13:48.322Z,99529.75
2023-04-14T07:16:16.425Z,99532.78
2023-04-14T07:18:44.132Z,99536.00
2023-04-14T07:21:11.854Z,99532.22
2023-04-14T07:23:39.877Z,99541.47
2023-04-14T07:26:08.687Z,99546.41
2023-04-14T07:28:37.133Z,99536.13
2023-04-14T07:31:10.211Z,99545.50
2023-04-14T07:33:38.645Z,99547.53
2023-04-14T07:36:07.272Z,99550.91
2023-04-14T07:38:35.001Z,99542.56
2023-04-14T07:41:05.225Z,99538.81
2023-04-14T07:43:35.452Z,99538.16
2023-04-14T07:46:05.250Z,99537.75
2023-04-14T07:48:38.832Z,99522.56
2023-04-14T07:51:07.054Z,99522.84
2023-04-14T07:53:40.675Z,99520.59
2023-04-14T07:56:08.239Z,99522.03
2023-04-14T07:58:35.980Z,99517.13
2023-04-14T08:01:04.619Z,99517.06
2023-04-14T08:03:32.405Z,99515.22
2023-04-14T08:06:04.153Z,99515.25
2023-04-14T08:08:32.009Z,99515.22
2023-04-14T08:10:59.704Z,99518.66
2023-04-14T08:13:27.513Z,99513.84
2023-04-14T08:15:55.109Z,99506.09
2023-04-14T08:18:23.624Z,99506.34
2023-04-14T08:20:51.490Z,99502.50
2023-04-14T08:23:21.084Z,99504.25
2023-04-14T08:25:49.057Z,99498.75
2023-04-14T08:28:17.291Z,99496.16
2023-04-14T08:30:44.999Z,99498.44
2023-04-14T08:33:13.685Z,99489.16
2023-04-14T08:35:43.159Z,99490.47
2023-04-14T08:38:18.654Z,99492.72
2023-04-14T08:40:51.583Z,99497.78
2023-04-14T08:43:19.775Z,99488.69
2023-04-14T08:45:48.594Z,99492.91
2023-04-14T08:48:20.586Z,99491.25
2023-04-14T08:50:59.165Z,99485.44
2023-04-14T08:53:28.583Z,99488.78
2023-04-14T08:56:01.362Z,99485.72
2023-04-14T08:58:29.388Z,99470.53
2023-04-14T09:00:59.140Z,99478.41
2023-04-14T09:03:27.113Z,99476.66
2023-04-14T09:05:55.245Z,99475.06
2023-04-14T09:08:23.465Z,99465.84
2023-04-14T09:10:51.683Z,99465.13
2023-04-14T09:13:32.798Z,99462.38
2023-04-14T09:16:01.880Z,99467.44
2023-04-14T09:18:31.658Z,99462.63
2023-04-14T09:21:29.644Z,99452.72
2023-04-14T09:23:52.348Z,99441.13
2023-04-14T09:26:20.155Z,99442.19
2023-04-14T09:28:49.330Z,99446.84
2023-04-14T09:31:20.683Z,99439.41
2023-04-14T09:33:51.468Z,99453.03
2023-04-14T09:36:27.864Z,99443.00
2023-04-14T09:38:58.102Z,99442.38
2023-04-14T09:41:27.665Z,99438.13
2023-04-14T09:43:56.980Z,99438.59
2023-04-14T09:46:25.016Z,99433.50
2023-04-14T09:51:53.330Z,99433.09
2023-04-14T09:54:25.660Z,99426.56
2023-04-14T09:56:56.252Z,99426.38
2023-04-14T09:59:36.881Z,99421.84
2023-04-14T10:02:08.637Z,99418.03
2023-04-14T10:04:38.916Z,99424.63
2023-04-14T10:07:07.985Z,99416.16
2023-04-14T10:09:37.735Z,99414.38
2023-04-14T10:12:10.624Z,99418.00
2023-04-14T10:14:40.220Z,99407.63
2023-04-14T10:17:08.207Z,99414.28
2023-04-14T10:19:37.578Z,99412.28
2023-04-14T10:22:06.551Z,99406.72
2023-04-14T10:24:36.018Z,99395.88
2023-04-14T10:27:05.224Z,99393.66
2023-04-14T10:29:35.770Z,99394.31
2023-04-14T10:32:14.490Z,99392.47
2023-04-14T10:34:57.684Z,99390.66
2023-04-14T10:37:29.185Z,99376.91
2023-04-14T10:39:57.676Z,99379.53
2023-04-14T10:42:25.971Z,99386.41
2023-04-14T10:45:06.242Z,99395.22
2023-04-14T10:47:43.306Z,99387.16
2023-04-14T10:50:20.140Z,99383.03
2023-04-14T10:52:50.990Z,99386.31
2023-04-14T10:55:24.912Z,99374.50
2023-04-14T10:57:54.493Z,99369.97
2023-04-14T11:00:25.166Z,99362.81
2023-04-14T11:02:59.252Z,99359.38
2023-04-14T11:05:27.169Z,99354.06
2023-04-14T11:07:58.712Z,99352.16
2023-04-14T11:10:33.108Z,99346.56
2023-04-14T11:13:07.128Z,99343.81
2023-04-14T11:15:50.479Z,99335.53
2023-04-14T11:18:22.674Z,99333.81
2023-04-14T11:20:53.588Z,99343.78
2023-04-14T11:23:29.333Z,99326.59
2023-04-14T11:25:58.053Z,99329.31
2023-04-14T11:28:29.284Z,99323.03
2023-04-14T11:30:59.482Z,99323.13
2023-04-14T11:33:32.491Z,99321.53
2023-04-14T11:36:00.861Z,99321.28
2023-04-14T11:38:29.176Z,99320.34
2023-04-14T11:40:57.224Z,99304.94
2023-04-14T11:43:26.578Z,99311.50
2023-04-14T11:45:54.735Z,99299.34
2023-04-14T11:48:23.763Z,99296.38
2023-04-14T11:50:56.504Z,99288.13
2023-04-14T11:53:24.126Z,99275.31
2023-04-14T11:55:53.982Z,99284.41
2023-04-14T11:58:28.827Z,99273.22
2023-04-14T12:00:58.119Z,99272.19
2023-04-14T12:03:27.742Z,99266.69
2023-04-14T12:06:01.508Z,99262.59
2023-04-14T12:08:31.304Z,99251.03
2023-04-14T12:10:59.255Z,99253.09
2023-04-14T12:13:28.202Z,99238.69
2023-04-14T12:15:56.352Z,99241.13
2023-04-14T12:18:24.529Z,99242.25
2023-04-14T12:20:54.504Z,99239.22
2023-04-14T12:23:25.538Z,99233.06
2023-04-14T12:25:53.820Z,99234.03
2023-04-14T12:28:27.753Z,99224.41
2023-04-14T12:30:59.220Z,99215.41
2023-04-14T12:33:28.506Z,99215.41
2023-04-14T12:36:03.093Z,99213.56
2023-04-14T12:38:32.532Z,99215.16
2023-04-14T12:41:00.427Z,99202.31
2023-04-14T12:43:30.149Z,99206.72
2023-04-14T12:45:58.631Z,99198.72
2023-04-14T12:48:44.448Z,99195.22
2023-04-14T12:51:13.623Z,99188.31
2023-04-14T12:53:43.770Z,99190.75
2023-04-14T12:56:14.932Z,99185.84
2023-04-14T12:58:46.577Z,99181.78
2023-04-14T13:01:15.598Z,99186.44
2023-04-14T13:03:46.014Z,99180.72
2023-04-14T13:06:17.969Z,99175.75
2023-04-14T13:08:48.287Z,99177.75
2023-04-14T13:11:19.877Z,99181.09
2023-04-14T13:13:47.675Z,99178.56
2023-04-14T13:16:18.291Z,99163.53
2023-04-14T13:18:49.307Z,99164.09
2023-04-14T13:21:17.330Z,99155.31
2023-04-14T13:23:45.075Z,99154.66
2023-04-14T13:26:14.302Z,99154.69
2023-04-14T13:28:42.016Z,99142.47
2023-04-14T13:31:11.577Z,99138.53
2023-04-14T13:33:39.402Z,99139.56
2023-04-14T13:36:15.413Z,99133.59
2023-04-14T13:38:49.551Z,99136.38
2023-04-14T13:41:19.625Z,99129.72
2023-04-14T13:43:48.228Z,99127.78
2023-04-14T13:46:16.621Z,99119.38
2023-04-14T13:48:46.335Z,99122.09
2023-04-14T13:51:14.148Z,99115.53
2023-04-14T13:53:42.171Z,99110.44
2023-04-14T13:56:11.177Z,99110.72
2023-04-14T13:58:40.222Z,99109.84
2023-04-14T14:01:12.037Z,99113.13
2023-04-14T14:03:41.219Z,99110.88
2023-04-14T14:06:09.053Z,99109.09
2023-04-14T14:08:37.958Z,99101.00
2023-04-14T14:11:07.204Z,99102.34
2023-04-14T14:13:35.957Z,99104.03
2023-04-14T14:16:08.764Z,99100.41
2023-04-14T14:18:38.046Z,99098.78
2023-04-14T14:21:06.426Z,99092.78
2023-04-14T14:23:34.336Z,99094.50
2023-04-14T14:26:03.261Z,99097.78
2023-04-14T14:28:30.895Z,99083.47
2023-04-14T14:30:59.598Z,99085.72
2023-04-14T14:33:28.637Z,99073.47
2023-04-14T14:35:56.330Z,99072.06
2023-04-14T14:38:25.481Z,99075.25
2023-04-14T14:40:53.253Z,99073.56
2023-04-14T14:43:21.888Z,99071.53
2023-04-14T14:46:03.780Z,99068.94
2023-04-14T14:48:37.560Z,99074.09
2023-04-14T14:51:08.776Z,99063.63
2023-04-14T14:53:36.410Z,99065.69
2023-04-14T14:56:04.493Z,99068.69
2023-04-14T14:58:32.408Z,99072.75
2023-04-14T15:01:08.854Z,99071.00
2023-04-14T15:03:41.356Z,99071.53
2023-04-14T15:06:13.468Z,99079.09
2023-04-14T15:08:43.771Z,99072.84
2023-04-14T15:11:25.680Z,99078.44
2023-04-14T15:13:56.627Z,99069.53
2023-04-14T15:16:29.440Z,99075.16
2023-04-14T15:18:59.168Z,99074.72
2023-04-14T15:21:27.185Z,99077.22
2023-04-14T15:23:56.204Z,99075.25
2023-04-14T15:26:24.304Z,99075.16
2023-04-14T15:28:51.972Z,99087.28
2023-04-14T15:31:19.961Z,99091.47
2023-04-14T15:33:47.693Z,99081.06
2023-04-14T15:36:16.602Z,99077.69
2023-04-14T15:38:44.264Z,99087.16
2023-04-14T15:41:11.865Z,99085.53
2023-04-14T15:43:43.621Z,99090.66
2023-04-14T15:46:14.386Z,99089.34
2023-04-14T15:48:43.825Z,99089.69
2023-04-14T15:51:12.488Z,99091.25
2023-04-14T15:53:43.632Z,99100.34
2023-04-14T15:56:18.634Z,99090.06
2023-04-14T15:58:46.613Z,99089.47
2023-04-14T16:01:15.312Z,99098.69
2023-04-14T16:03:46.108Z,99088.97
2023-04-14T16:06:16.962Z,99088.75
2023-04-14T16:08:46.334Z,99094.38
2023-04-14T16:11:19.708Z,99089.38
2023-04-14T16:13:48.867Z,99090.25
2023-04-14T16:16:17.663Z,99092.78
2023-04-14T16:18:45.536Z,99084.13
2023-04-14T16:21:14.823Z,99091.44
2023-04-14T16:23:42.818Z,99099.69
2023-04-14T16:26:13.669Z,99100.53
2023-04-14T16:28:41.759Z,99099.03
2023-04-14T16:31:09.562Z,99104.31
2023-04-14T16:33:37.797Z,99095.97
2023-04-14T16:36:07.237Z,99099.91
2023-04-14T16:38:35.364Z,99100.13
2023-04-14T16:41:03.588Z,99093.53
2023-04-14T16:43:34.808Z,99096.28
2023-04-14T16:46:03.431Z,99095.19
2023-04-14T16:48:33.189Z,99101.63
2023-04-14T16:51:08.985Z,99103.38
2023-04-14T16:53:37.638Z,99102.75
2023-04-14T16:56:05.693Z,99098.91
2023-04-14T16:58:35.552Z,99103.50
2023-04-14T17:01:03.484Z,99104.56
2023-04-14T17:03:34.486Z,99097.03
2023-04-14T17:06:18.092Z,99102.88
2023-04-14T17:08:47.978Z,99094.78
2023-04-14T17:11:19.683Z,99093.53
2023-04-14T17:13:49.703Z,99086.78
2023-04-14T17:16:20.056Z,99095.22
2023-04-14T17:18:48.254Z,99094.00
2023-04-14T17:21:16.273Z,99095.63
2023-04-14T17:23:46.536Z,99096.06
2023-04-14T17:26:18.270Z,99097.03
2023-04-14T17:28:46.618Z,99098.50
2023-04-14T17:31:22.368Z,99101.91
2023-04-14T17:33:50.647Z,99099.19
2023-04-14T17:36:18.472Z,99105.03
2023-04-14T17:38:47.003Z,99100.38
2023-04-14T17:41:14.900Z,99106.75
2023-04-14T17:44:05.057Z,99101.41
2023-04-14T17:46:37.138Z,99099.59
2023-04-14T17:49:09.431Z,99103.13
2023-04-14T17:51:38.320Z,99109.34
2023-04-14T17:54:06.285Z,99101.25
2023-04-14T17:56:33.998Z,99104.91
2023-04-14T17:59:02.125Z,99105.31
2023-04-14T18:01:30.110Z,99096.09
2023-04-14T18:04:00.596Z,99103.38
2023-04-14T18:06:28.826Z,99098.66
2023-04-14T18:08:58.881Z,99103.94
2023-04-14T18:11:27.097Z,99109.06
2023-04-14T18:13:54.718Z,99107.28
2023-04-14T18:16:25.248Z,99103.53
2023-04-14T18:18:53.109Z,99110.75
2023-04-14T18:21:22.125Z,99105.09
2023-04-14T18:28:53.466Z,99117.69
2023-04-14T18:31:21.196Z,99116.34
2023-04-14T18:33:48.921Z,99123.44
2023-04-14T18:36:16.518Z,99123.63
2023-04-14T18:38:47.064Z,99126.53
2023-04-14T18:41:14.833Z,99123.88
2023-04-14T18:43:42.665Z,99133.44
2023-04-14T18:46:11.627Z,99128.34
2023-04-14T18:48:40.481Z,99124.19
2023-04-14T18:51:11.239Z,99133.91
2023-04-14T18:53:41.752Z,99130.22
2023-04-14T18:56:10.881Z,99132.09
2023-04-14T18:58:38.585Z,99134.13
2023-04-14T19:01:06.662Z,99142.69
2023-04-14T19:03:34.438Z,99142.97
2023-04-14T19:06:02.939Z,99151.78
2023-04-14T19:08:30.891Z,99146.03
2023-04-14T19:11:00.120Z,99144.13
2023-04-14T19:13:31.630Z,99144.47
2023-04-14T19:16:11.349Z,99149.06
2023-04-14T19:18:39.552Z,99152.94
2023-04-14T19:21:08.245Z,99147.69
2023-04-14T19:23:36.761Z,99155.13
2023-04-14T19:26:08.269Z,99161.81
2023-04-14T19:28:40.301Z,99171.25
2023-04-14T19:31:07.951Z,99168.13
2023-04-14T19:33:35.720Z,99182.94
2023-04-14T19:36:12.548Z,99190.72
2023-04-14T19:38:40.615Z,99191.81
2023-04-14T19:41:08.743Z,99188.44
2023-04-14T19:43:38.268Z,99190.59
2023-04-14T19:46:07.230Z,99193.09
2023-04-14T19:48:35.395Z,99193.63
2023-04-14T19:51:03.919Z,99191.66
2023-04-14T19:53:32.941Z,99192.28
2023-04-14T19:56:02.121Z,99190.38
2023-04-14T19:58:30.603Z,99191.06
2023-04-14T20:01:01.016Z,99200.38
2023-04-14T20:03:29.621Z,99195.84
2023-04-14T20:05:58.972Z,99193.97
2023-04-14T20:08:27.537Z,99194.28
2023-04-14T20:10:56.433Z,99196.59
2023-04-14T20:13:27.502Z,99199.47
2023-04-14T20:15:55.190Z,99202.81
2023-04-14T20:18:25.939Z,99201.41
2023-04-14T20:20:54.909Z,99204.69
2023-04-14T20:23:22.980Z,99194.78
2023-04-14T20:25:51.521Z,99196.66
2023-04-14T20:28:20.019Z,99202.81
2023-04-14T20:30:49.687Z,99195.41
2023-04-14T20:33:18.488Z,99199.75
2023-04-14T20:35:55.239Z,99194.84
2023-04-14T20:38:23.510Z,99198.34
2023-04-14T20:40:52.928Z,99200.41
2023-04-14T20:43:20.724Z,99198.34
2023-04-14T20:45:51.829Z,99207.00
2023-04-14T20:48:20.575Z,99201.84
2023-04-14T20:50:50.119Z,99205.75
2023-04-14T20:53:22.040Z,99206.38
2023-04-14T20:55:51.134Z,99209.06
2023-04-14T20:58:19.247Z,99205.78
2023-04-14T21:00:46.856Z,99204.13
2023-04-14T21:03:14.873Z,99202.91
2023-04-14T21:05:42.618Z,99208.28
2023-04-14T21:08:12.581Z,99199.41
2023-04-14T21:11:02.217Z,99200.63
2023-04-14T21:15:29.552Z,99207.22
2023-04-14T21:16:16.232Z,99209.47
2023-04-14T21:18:44.009Z,99207.22
2023-04-14T21:21:12.258Z,99207.22
2023-04-14T21:23:48.605Z,99219.38
2023-04-14T21:26:16.585Z,99218.97
2023-04-14T21:28:46.905Z,99211.97
2023-04-14T21:31:15.879Z,99213.63
2023-04-14T21:33:43.773Z,99207.66
2023-04-14T21:36:11.872Z,99217.16
2023-04-14T21:38:42.357Z,99210.34
2023-04-14T21:41:11.506Z,99220.66
2023-04-14T21:43:39.587Z,99230.94
2023-04-14T21:46:08.290Z,99218.81
2023-04-14T21:48:36.897Z,99226.81
2023-04-14T21:51:08.079Z,99237.50
2023-04-14T21:53:36.472Z,99239.78
2023-04-14T21:56:10.151Z,99241.00
2023-04-14T21:58:39.175Z,99231.38
2023-04-14T22:01:09.610Z,99232.81
2023-04-14T22:03:38.775Z,99237.69
2023-04-14T22:06:09.825Z,99234.59
2023-04-14T22:08:37.488Z,99244.28
2023-04-14T22:11:06.918Z,99236.47
2023-04-14T22:13:34.839Z,99240.34
2023-04-14T22:16:03.562Z,99239.50
2023-04-14T22:18:31.904Z,99235.72
2023-04-14T22:20:59.787Z,99244.16
2023-04-14T22:23:28.468Z,99244.97
2023-04-14T22:25:56.425Z,99235.91
2023-04-14T22:28:26.159Z,99241.25
2023-04-14T22:30:54.147Z,99238.75
2023-04-14T22:33:22.442Z,99244.47
2023-04-14T22:35:50.479Z,99245.50
2023-04-14T22:38:18.679Z,99252.06
2023-04-14T22:40:49.262Z,99253.28
2023-04-14T22:43:19.185Z,99254.59
2023-04-14T22:45:50.926Z,99254.38
2023-04-14T22:48:20.999Z,99252.34
2023-04-14T22:50:49.040Z,99250.94
2023-04-14T22:53:16.950Z,99243.94
2023-04-14T22:55:45.053Z,99251.03
2023-04-14T22:58:16.665Z,99249.75
2023-04-14T23:00:45.168Z,99252.78
2023-04-14T23:03:15.696Z,99247.69
2023-04-14T23:05:44.569Z,99251.81
2023-04-14T23:08:12.100Z,99252.47
2023-04-14T23:10:40.091Z,99253.91
2023-04-14T23:13:08.249Z,99254.28
2023-04-14T23:15:37.264Z,99248.47
2023-04-14T23:18:05.472Z,99254.13
2023-04-14T23:20:37.162Z,99259.47
2023-04-14T23:23:05.813Z,99255.72
2023-04-14T23:25:33.656Z,99262.88
2023-04-14T23:28:01.641Z,99262.44
2023-04-14T23:30:37.249Z,99259.94
2023-04-14T23:33:05.002Z,99262.41
2023-04-14T23:35:36.840Z,99253.38
2023-04-14T23:38:04.389Z,99262.41
2023-04-14T23:40:33.312Z,99265.13
2023-04-14T23:43:03.288Z,99259.78
2023-04-14T23:45:36.992Z,99263.06
2023-04-14T23:48:07.191Z,99259.78
2023-04-14T23:50:58.961Z,99259.75
2023-04-14T23:53:27.154Z,99260.38
2023-04-14T23:55:55.124Z,99259.16
2023-04-14T23:58:26.832Z,99258.75
